createdAt,value
2023-03-06T00:01:01.847Z,100076.63
2023-03-06T00:03:34.741Z,100062.84
2023-03-06T00:06:06.554Z,100055.09
2023-03-06T00:08:40.290Z,100050.78
2023-03-06T00:11:15.875Z,100043.91
2023-03-06T00:13:48.968Z,100029.25
2023-03-06T00:16:20.311Z,100028.38
2023-03-06T00:18:51.678Z,100030.94
2023-03-06T00:21:23.113Z,100031.84
2023-03-06T00:23:54.507Z,100024.09
2023-03-06T00:26:25.759Z,100021.53
2023-03-06T00:28:58.636Z,100025.84
2023-03-06T00:31:29.701Z,100035.34
2023-03-06T00:34:01.126Z,100033.63
2023-03-06T00:36:32.318Z,100038.81
2023-03-06T00:39:03.422Z,100031.03
2023-03-06T00:41:34.469Z,100036.25
2023-03-06T00:44:07.456Z,100021.56
2023-03-06T00:46:38.914Z,99956.75
2023-03-06T00:49:10.146Z,100025.88
2023-03-06T00:51:42.235Z,100016.38
2023-03-06T00:54:13.812Z,99999.09
2023-03-06T00:56:45.144Z,100016.38
2023-03-06T00:59:17.926Z,99998.22
2023-03-06T01:01:48.994Z,100002.56
2023-03-06T01:04:20.292Z,99980.06
2023-03-06T01:06:51.917Z,99980.06
2023-03-06T01:09:23.149Z,99965.38
2023-03-06T01:11:54.476Z,99969.66
2023-03-06T01:14:27.503Z,99967.09
2023-03-06T01:16:58.767Z,99964.47
2023-03-06T01:19:30.086Z,99967.09
2023-03-06T01:22:04.721Z,99952.38
2023-03-06T01:24:36.298Z,99947.16
2023-03-06T01:27:07.713Z,99944.56
2023-03-06T01:29:40.589Z,99935.03
2023-03-06T01:32:12.003Z,99956.63
2023-03-06T01:34:43.180Z,99944.50
2023-03-06T01:37:14.351Z,99947.06
2023-03-06T01:39:45.298Z,99941.81
2023-03-06T01:42:16.980Z,99930.53
2023-03-06T01:45:09.030Z,99929.69
2023-03-06T01:47:40.413Z,99926.22
2023-03-06T01:50:13.955Z,99922.75
2023-03-06T01:52:50.260Z,99921.00
2023-03-06T01:55:23.829Z,99926.16
2023-03-06T01:57:58.768Z,99926.91
2023-03-06T02:00:33.247Z,99927.75
2023-03-06T02:03:09.735Z,99932.91
2023-03-06T02:05:42.781Z,99919.84
2023-03-06T02:08:17.065Z,99944.94
2023-03-06T02:11:00.282Z,99921.56
2023-03-06T02:13:32.375Z,99918.00
2023-03-06T02:16:05.909Z,99900.84
2023-03-06T02:18:37.804Z,99934.44
2023-03-06T02:21:12.294Z,99935.28
2023-03-06T02:23:52.203Z,99931.00
2023-03-06T02:26:25.602Z,99921.28
2023-03-06T02:28:58.468Z,99919.41
2023-03-06T02:31:31.374Z,99927.16
2023-03-06T02:34:11.004Z,99918.59
2023-03-06T02:36:47.446Z,99916.84
2023-03-06T02:39:21.877Z,99912.53
2023-03-06T02:41:55.008Z,99922.97
2023-03-06T02:44:27.731Z,99920.38
2023-03-06T02:46:58.799Z,99919.44
2023-03-06T02:49:29.991Z,99918.44
2023-03-06T02:52:01.503Z,99928.75
2023-03-06T02:54:32.859Z,99917.41
2023-03-06T02:57:05.819Z,99905.34
2023-03-06T02:59:37.077Z,99920.22
2023-03-06T03:02:08.332Z,99923.81
2023-03-06T03:04:39.954Z,99914.31
2023-03-06T03:07:11.325Z,99913.34
2023-03-06T03:09:42.518Z,99917.63
2023-03-06T03:12:15.843Z,99902.06
2023-03-06T03:14:47.580Z,99919.38
2023-03-06T03:17:18.808Z,99916.84
2023-03-06T03:19:50.084Z,99908.22
2023-03-06T03:22:21.596Z,99918.69
2023-03-06T03:24:52.909Z,99905.88
2023-03-06T03:27:26.121Z,99910.31
2023-03-06T03:29:59.684Z,99898.31
2023-03-06T03:32:31.083Z,99905.34
2023-03-06T03:35:03.459Z,99889.78
2023-03-06T03:37:35.849Z,99886.38
2023-03-06T03:40:07.776Z,99884.69
2023-03-06T03:42:41.223Z,99884.72
2023-03-06T03:45:13.316Z,99862.25
2023-03-06T03:47:44.676Z,99857.06
2023-03-06T03:50:15.990Z,99872.66
2023-03-06T03:52:47.295Z,99864.03
2023-03-06T03:55:18.642Z,99869.28
2023-03-06T03:57:51.581Z,99869.31
2023-03-06T04:00:23.725Z,99803.75
2023-03-06T04:02:54.961Z,99857.25
2023-03-06T04:05:26.446Z,99847.78
2023-03-06T04:07:57.527Z,99834.81
2023-03-06T04:10:29.007Z,99834.00
2023-03-06T04:13:02.108Z,99846.09
2023-03-06T04:15:33.517Z,99829.69
2023-03-06T04:18:04.802Z,99827.97
2023-03-06T04:20:36.236Z,99814.19
2023-03-06T04:23:07.464Z,99809.00
2023-03-06T04:25:38.615Z,99817.63
2023-03-06T04:28:12.009Z,99738.31
2023-03-06T04:30:43.317Z,99805.50
2023-03-06T04:33:14.533Z,99804.63
2023-03-06T04:35:45.823Z,99808.94
2023-03-06T04:38:17.132Z,99805.50
2023-03-06T04:40:48.303Z,99824.50
2023-03-06T04:43:21.561Z,99827.06
2023-03-06T04:45:53.008Z,99831.34
2023-03-06T04:48:26.108Z,99826.16
2023-03-06T04:50:57.359Z,99802.84
2023-03-06T04:53:28.267Z,99840.88
2023-03-06T04:55:59.610Z,99836.59
2023-03-06T04:58:32.356Z,99844.41
2023-03-06T05:01:03.832Z,99836.69
2023-03-06T05:03:35.445Z,99837.56
2023-03-06T05:06:06.831Z,99838.41
2023-03-06T05:08:38.659Z,99831.47
2023-03-06T05:11:10.101Z,99843.53
2023-03-06T05:13:43.932Z,99833.16
2023-03-06T05:16:15.291Z,99829.75
2023-03-06T05:18:48.363Z,99826.31
2023-03-06T05:21:20.561Z,99826.34
2023-03-06T05:23:52.058Z,99828.94
2023-03-06T05:26:24.330Z,99834.09
2023-03-06T05:28:57.237Z,99839.28
2023-03-06T05:31:28.705Z,99842.72
2023-03-06T05:34:01.792Z,99859.16
2023-03-06T05:36:33.815Z,99859.16
2023-03-06T05:39:05.265Z,99867.81
2023-03-06T05:41:39.483Z,99873.00
2023-03-06T05:44:12.410Z,99874.72
2023-03-06T05:46:43.532Z,99883.38
2023-03-06T05:49:14.884Z,99885.09
2023-03-06T05:51:46.067Z,99873.84
2023-03-06T05:54:17.405Z,99885.06
2023-03-06T05:56:48.598Z,99813.47
2023-03-06T05:59:21.485Z,99871.25
2023-03-06T06:01:52.619Z,99866.06
2023-03-06T06:04:24.029Z,99877.28
2023-03-06T06:06:56.912Z,99876.38
2023-03-06T06:09:28.816Z,99878.13
2023-03-06T06:12:02.128Z,99876.41
2023-03-06T06:14:37.353Z,99888.50
2023-03-06T06:17:08.516Z,99902.34
2023-03-06T06:19:39.846Z,99891.97
2023-03-06T06:22:10.559Z,99891.97
2023-03-06T06:24:41.247Z,99892.84
2023-03-06T06:27:12.439Z,99903.19
2023-03-06T06:29:44.618Z,99907.50
2023-03-06T06:32:22.649Z,99905.78
2023-03-06T06:34:54.012Z,99923.97
2023-03-06T06:37:26.183Z,99918.75
2023-03-06T06:39:57.566Z,99923.09
2023-03-06T06:42:36.979Z,99917.03
2023-03-06T06:45:14.133Z,99922.22
2023-03-06T06:47:45.603Z,99925.69
2023-03-06T06:50:17.493Z,99924.84
2023-03-06T06:52:51.775Z,99923.97
2023-03-06T06:55:23.165Z,99923.97
2023-03-06T06:57:54.095Z,99930.84
2023-03-06T07:00:39.216Z,99927.41
2023-03-06T07:03:10.483Z,99926.53
2023-03-06T07:05:41.032Z,99927.41
2023-03-06T07:08:11.972Z,99930.00
2023-03-06T07:10:42.593Z,99933.44
2023-03-06T07:13:13.574Z,99935.13
2023-03-06T07:15:46.083Z,99923.06
2023-03-06T07:18:16.606Z,99931.69
2023-03-06T07:20:47.057Z,99937.72
2023-03-06T07:23:18.049Z,99941.19
2023-03-06T07:25:48.867Z,99952.41
2023-03-06T07:28:19.725Z,99971.38
2023-03-06T07:30:52.060Z,99963.63
2023-03-06T07:33:22.474Z,99966.19
2023-03-06T07:35:52.905Z,99927.25
2023-03-06T07:38:23.432Z,99972.13
2023-03-06T07:40:54.868Z,99961.75
2023-03-06T07:43:25.417Z,99979.78
2023-03-06T07:46:03.619Z,99984.03
2023-03-06T07:48:34.036Z,99990.00
2023-03-06T07:51:06.211Z,99993.41
2023-03-06T07:53:36.836Z,99994.25
2023-03-06T07:56:09.852Z,100001.91
2023-03-06T07:58:40.785Z,99998.47
2023-03-06T08:01:14.797Z,100011.41
2023-03-06T08:03:52.442Z,100007.78
2023-03-06T08:06:25.593Z,100005.94
2023-03-06T08:09:06.451Z,100021.41
2023-03-06T08:11:36.998Z,100017.03
2023-03-06T08:14:09.657Z,100011.75
2023-03-06T08:16:52.764Z,100029.84
2023-03-06T08:19:23.382Z,100028.13
2023-03-06T08:22:03.067Z,100035.00
2023-03-06T08:24:33.640Z,100007.34
2023-03-06T08:27:47.672Z,100042.69
2023-03-06T08:30:18.684Z,100046.94
2023-03-06T08:32:50.800Z,100045.97
2023-03-06T08:35:29.751Z,100060.59
2023-03-06T08:38:00.384Z,100063.22
2023-03-06T08:40:37.541Z,100058.06
2023-03-06T08:43:28.711Z,100009.53
2023-03-06T08:46:02.981Z,100059.69
2023-03-06T08:48:35.250Z,100061.38
2023-03-06T08:51:06.005Z,100076.88
2023-03-06T08:53:43.129Z,100075.19
2023-03-06T08:56:23.557Z,99991.16
2023-03-06T08:58:55.527Z,100068.25
2023-03-06T09:01:30.053Z,100054.41
2023-03-06T09:04:03.841Z,100061.22
2023-03-06T09:06:36.316Z,100059.47
2023-03-06T09:09:13.772Z,100066.41
2023-03-06T09:11:47.215Z,100071.56
2023-03-06T09:14:18.724Z,100024.81
2023-03-06T09:16:49.297Z,100078.41
2023-03-06T09:19:21.546Z,100074.09
2023-03-06T09:21:52.651Z,100093.88
2023-03-06T09:24:23.291Z,100095.59
2023-03-06T09:26:53.905Z,100083.44
2023-03-06T09:29:24.508Z,100105.88
2023-03-06T09:31:55.082Z,100105.03
2023-03-06T09:34:28.508Z,100111.06
2023-03-06T09:36:58.950Z,100114.50
2023-03-06T09:39:29.858Z,100105.91
2023-03-06T09:42:00.858Z,100111.91
2023-03-06T09:44:33.782Z,100111.03
2023-03-06T09:47:29.500Z,100105.81
2023-03-06T09:50:17.658Z,100107.44
2023-03-06T09:53:00.648Z,100100.50
2023-03-06T09:55:36.894Z,100107.41
2023-03-06T09:58:14.228Z,100099.56
2023-03-06T10:00:54.523Z,100119.38
2023-03-06T10:03:30.290Z,100127.16
2023-03-06T10:06:07.851Z,100134.03
2023-03-06T10:08:49.583Z,100136.63
2023-03-06T10:11:27.878Z,100138.28
2023-03-06T10:14:14.955Z,100130.50
2023-03-06T10:16:46.669Z,100130.63
2023-03-06T10:19:19.821Z,100046.34
2023-03-06T10:21:59.143Z,100129.69
2023-03-06T10:24:48.909Z,100128.00
2023-03-06T10:27:30.430Z,100126.28
2023-03-06T10:30:20.913Z,100135.84
2023-03-06T10:32:58.791Z,100129.75
2023-03-06T10:35:33.929Z,100128.94
2023-03-06T10:38:19.614Z,100140.28
2023-03-06T10:41:02.464Z,100079.69
2023-03-06T10:43:40.017Z,100100.50
2023-03-06T10:46:12.223Z,100136.88
2023-03-06T10:48:53.619Z,100134.34
2023-03-06T10:51:26.550Z,100140.31
2023-03-06T10:54:01.285Z,100133.47
2023-03-06T10:56:35.374Z,100132.59
2023-03-06T10:59:11.509Z,100132.66
2023-03-06T11:01:48.918Z,100130.06
2023-03-06T11:04:43.201Z,100118.00
2023-03-06T11:07:26.011Z,100123.16
2023-03-06T11:10:23.596Z,100121.41
2023-03-06T11:13:26.093Z,100128.38
2023-03-06T11:16:10.927Z,100140.44
2023-03-06T11:18:47.635Z,100060.66
2023-03-06T11:21:34.871Z,100130.09
2023-03-06T11:24:13.603Z,100131.69
2023-03-06T11:27:00.369Z,100133.41
2023-03-06T11:29:44.057Z,100133.38
2023-03-06T11:32:34.662Z,100112.56
2023-03-06T11:35:21.021Z,100128.09
2023-03-06T11:38:01.268Z,100127.22
2023-03-06T11:40:40.424Z,100128.88
2023-03-06T11:43:30.040Z,100121.13
2023-03-06T11:46:11.224Z,100126.28
2023-03-06T11:48:51.466Z,100119.31
2023-03-06T11:51:26.778Z,100038.72
2023-03-06T11:54:01.307Z,100090.75
2023-03-06T11:56:46.579Z,100132.34
2023-03-06T11:59:39.836Z,100004.97
2023-03-06T12:02:42.008Z,100130.63
2023-03-06T12:05:31.113Z,100124.47
2023-03-06T12:08:17.231Z,100106.31
2023-03-06T12:10:56.859Z,100108.97
2023-03-06T12:13:40.500Z,100144.50
2023-03-06T12:16:39.488Z,100148.84
2023-03-06T12:19:36.688Z,100145.44
2023-03-06T12:22:34.761Z,100154.03
2023-03-06T12:25:37.581Z,100140.28
2023-03-06T12:28:34.968Z,100149.69
2023-03-06T12:31:25.914Z,100152.25
2023-03-06T12:34:27.112Z,100152.31
2023-03-06T12:37:14.536Z,100157.47
2023-03-06T12:40:10.875Z,100165.19
2023-03-06T12:43:08.101Z,100160.06
2023-03-06T12:45:45.130Z,100159.22
2023-03-06T12:48:23.831Z,100094.28
2023-03-06T12:51:00.322Z,100156.72
2023-03-06T12:53:36.068Z,100162.69
2023-03-06T12:56:08.047Z,100134.97
2023-03-06T12:59:01.784Z,100084.53
2023-03-06T13:02:01.806Z,100157.53
2023-03-06T13:05:03.985Z,100167.97
2023-03-06T13:07:56.512Z,100159.38
2023-03-06T13:10:31.545Z,100081.38
2023-03-06T13:13:06.185Z,100154.16
2023-03-06T13:15:42.729Z,100155.84
2023-03-06T13:18:58.474Z,100147.31
2023-03-06T13:22:11.978Z,100146.41
2023-03-06T13:24:46.744Z,100147.25
2023-03-06T13:28:01.810Z,100150.66
2023-03-06T13:30:46.769Z,100149.72
2023-03-06T13:33:58.086Z,100143.66
2023-03-06T13:36:34.269Z,100152.25
2023-03-06T13:39:07.474Z,100143.47
2023-03-06T13:42:04.437Z,100153.03
2023-03-06T13:44:46.984Z,100153.09
2023-03-06T13:50:47.378Z,100155.66
2023-03-06T13:54:01.509Z,100150.50
2023-03-06T13:57:05.062Z,100145.31
2023-03-06T14:04:32.529Z,100100.25
2023-03-06T14:07:35.827Z,100148.94
2023-03-06T14:10:28.572Z,100156.66
2023-03-06T14:13:13.146Z,100137.69
2023-03-06T14:15:54.054Z,100145.38
2023-03-06T14:18:49.560Z,100072.50
2023-03-06T14:21:32.877Z,100159.16
2023-03-06T14:24:29.686Z,100148.00
2023-03-06T14:30:56.073Z,100142.00
2023-03-06T14:33:42.756Z,100123.03
2023-03-06T14:36:18.126Z,100141.13
2023-03-06T14:38:57.184Z,100133.34
2023-03-06T14:41:30.467Z,100134.22
2023-03-06T14:44:20.547Z,100133.38
2023-03-06T14:46:56.049Z,100119.63
2023-03-06T14:49:30.863Z,100114.44
2023-03-06T14:52:03.008Z,100117.84
2023-03-06T14:54:45.881Z,100123.88
2023-03-06T14:57:20.200Z,100134.16
2023-03-06T15:00:12.984Z,100131.69
2023-03-06T15:03:37.699Z,100135.16
2023-03-06T15:06:23.998Z,100140.28
2023-03-06T15:09:10.826Z,100140.22
2023-03-06T15:12:10.221Z,100142.88
2023-03-06T15:15:58.713Z,100132.44
2023-03-06T15:18:34.616Z,100136.88
2023-03-06T15:21:22.168Z,100138.69
2023-03-06T15:23:57.409Z,100141.25
2023-03-06T15:26:34.307Z,100132.56
2023-03-06T15:29:23.929Z,100139.56
2023-03-06T15:32:00.023Z,100048.50
2023-03-06T15:34:33.931Z,100142.16
2023-03-06T15:37:22.547Z,100137.84
2023-03-06T15:40:10.303Z,100136.06
2023-03-06T15:42:40.871Z,100139.47
2023-03-06T15:45:20.026Z,100138.59
2023-03-06T15:47:52.018Z,100054.41
2023-03-06T15:50:24.478Z,100147.22
2023-03-06T15:52:55.910Z,100154.91
2023-03-06T15:55:28.286Z,100057.97
2023-03-06T15:58:01.232Z,100105.63
2023-03-06T16:00:36.044Z,100151.56
2023-03-06T16:03:09.947Z,100159.34
2023-03-06T16:05:43.381Z,100144.69
2023-03-06T16:08:18.841Z,100155.13
2023-03-06T16:10:54.889Z,100161.19
2023-03-06T16:13:30.678Z,100153.25
2023-03-06T16:16:03.017Z,100169.78
2023-03-06T16:18:34.336Z,100169.81
2023-03-06T16:21:07.909Z,100164.63
2023-03-06T16:23:40.167Z,100162.84
2023-03-06T16:26:20.925Z,100164.63
2023-03-06T16:28:52.377Z,100160.28
2023-03-06T16:31:28.786Z,100157.69
2023-03-06T16:33:59.376Z,100162.88
2023-03-06T16:36:31.046Z,100095.28
2023-03-06T16:39:04.944Z,100159.50
2023-03-06T16:41:35.630Z,100154.34
2023-03-06T16:44:10.933Z,100147.53
2023-03-06T16:46:46.598Z,100151.00
2023-03-06T16:49:21.535Z,100150.91
2023-03-06T16:51:57.751Z,100144.88
2023-03-06T16:54:28.408Z,100144.06
2023-03-06T16:56:59.083Z,100145.69
2023-03-06T16:59:29.719Z,100145.44
2023-03-06T17:02:02.434Z,100136.66
2023-03-06T17:15:21.728Z,100132.84
2023-03-06T17:18:04.021Z,100143.16
2023-03-06T17:20:49.272Z,100134.56
2023-03-06T17:23:23.153Z,100130.97
2023-03-06T17:25:53.637Z,100137.66
2023-03-06T17:28:24.210Z,100137.50
2023-03-06T17:30:57.812Z,100127.19
2023-03-06T17:33:30.910Z,100122.19
2023-03-06T17:36:03.563Z,100134.38
2023-03-06T17:38:37.474Z,100130.94
2023-03-06T17:41:10.065Z,100141.22
2023-03-06T17:43:41.732Z,100026.78
2023-03-06T17:46:14.007Z,100126.44
2023-03-06T17:48:46.201Z,100125.56
2023-03-06T17:51:16.921Z,100123.84
2023-03-06T17:53:47.457Z,100113.41
2023-03-06T17:56:18.419Z,100111.63
2023-03-06T17:58:49.018Z,100114.13
2023-03-06T18:01:21.994Z,100105.31
2023-03-06T18:03:54.664Z,100110.28
2023-03-06T18:06:27.012Z,100109.25
2023-03-06T18:08:57.882Z,100111.09
2023-03-06T18:11:28.461Z,100107.88
2023-03-06T18:13:59.060Z,100111.38
2023-03-06T18:16:30.019Z,100087.88
2023-03-06T18:19:02.212Z,100114.59
2023-03-06T18:21:38.432Z,100121.38
2023-03-06T18:24:10.169Z,100098.97
2023-03-06T18:26:40.760Z,100111.09
2023-03-06T18:29:11.730Z,100072.91
2023-03-06T18:31:43.703Z,100029.56
2023-03-06T18:34:19.326Z,100100.50
2023-03-06T18:36:52.436Z,100114.13
2023-03-06T18:39:27.920Z,100080.25
2023-03-06T18:41:58.407Z,100118.56
2023-03-06T18:44:28.919Z,100131.63
2023-03-06T18:46:59.426Z,100097.06
2023-03-06T18:49:31.680Z,100136.91
2023-03-06T18:52:02.299Z,100129.09
2023-03-06T18:54:32.867Z,100129.88
2023-03-06T18:57:03.439Z,100127.97
2023-03-06T18:59:33.980Z,100128.63
2023-03-06T19:02:04.541Z,100118.28
2023-03-06T19:04:38.788Z,100120.97
2023-03-06T19:07:11.949Z,100117.72
2023-03-06T19:09:44.834Z,100123.81
2023-03-06T19:12:15.338Z,100109.25
2023-03-06T19:14:48.371Z,100114.53
2023-03-06T19:17:21.066Z,100111.06
2023-03-06T19:19:55.901Z,100116.09
2023-03-06T19:22:27.183Z,100108.31
2023-03-06T19:24:57.705Z,100109.97
2023-03-06T19:27:28.681Z,100108.22
2023-03-06T19:30:01.905Z,100119.41
2023-03-06T19:32:35.784Z,100117.72
2023-03-06T19:35:08.595Z,100070.00
2023-03-06T19:37:40.624Z,100122.94
2023-03-06T19:40:15.246Z,100130.31
2023-03-06T19:42:46.532Z,100135.69
2023-03-06T19:45:16.902Z,100143.69
2023-03-06T19:47:47.993Z,100146.75
2023-03-06T19:50:23.036Z,100144.69
2023-03-06T19:52:54.631Z,100154.66
2023-03-06T19:55:27.306Z,100151.06
2023-03-06T19:58:03.690Z,100085.78
2023-03-06T20:00:34.216Z,100148.88
2023-03-06T20:03:04.708Z,100161.53
2023-03-06T20:05:36.751Z,100153.72
2023-03-06T20:08:07.497Z,100146.59
2023-03-06T20:10:39.896Z,100139.44
2023-03-06T20:13:10.319Z,100144.38
2023-03-06T20:15:40.777Z,100135.84
2023-03-06T20:18:11.239Z,100078.34
2023-03-06T20:20:43.313Z,100133.97
2023-03-06T20:23:16.239Z,100132.28
2023-03-06T20:25:47.058Z,100130.63
2023-03-06T20:28:17.603Z,100134.19
2023-03-06T20:30:48.170Z,100123.84
2023-03-06T20:33:20.478Z,100129.03
2023-03-06T20:35:52.617Z,100130.56
2023-03-06T20:38:23.152Z,100133.09
2023-03-06T20:40:56.173Z,100094.16
2023-03-06T20:43:26.930Z,100115.88
2023-03-06T20:46:01.611Z,100129.19
2023-03-06T20:48:32.497Z,100035.16
2023-03-06T20:51:06.829Z,100136.34
2023-03-06T20:53:37.595Z,100148.19
2023-03-06T20:56:08.829Z,100164.97
2023-03-06T20:58:39.195Z,100157.66
2023-03-06T21:01:09.817Z,100145.16
2023-03-06T21:03:40.301Z,100145.03
2023-03-06T21:06:12.548Z,100134.59
2023-03-06T21:08:43.050Z,100153.34
2023-03-06T21:11:13.508Z,100153.47
2023-03-06T21:13:44.051Z,100147.50
2023-03-06T21:16:16.388Z,100147.41
2023-03-06T21:18:46.928Z,100156.06
2023-03-06T21:21:20.722Z,100156.03
2023-03-06T21:23:51.823Z,100155.88
2023-03-06T21:26:24.804Z,100161.00
2023-03-06T21:28:55.328Z,100157.47
2023-03-06T21:31:26.038Z,100163.22
2023-03-06T21:33:56.949Z,100161.50
2023-03-06T21:36:29.746Z,100154.44
2023-03-06T21:39:00.197Z,100163.03
2023-03-06T21:41:33.201Z,100117.94
2023-03-06T21:44:04.922Z,100162.03
2023-03-06T21:46:36.136Z,100082.63
2023-03-06T21:49:07.495Z,100152.09
2023-03-06T21:51:39.643Z,100148.75
2023-03-06T21:54:10.635Z,100151.94
2023-03-06T21:56:41.188Z,100140.75
2023-03-06T21:59:11.681Z,100141.69
2023-03-06T22:01:43.465Z,100082.72
2023-03-06T22:04:13.853Z,100112.91
2023-03-06T22:06:46.073Z,100118.19
2023-03-06T22:09:19.855Z,100104.47
2023-03-06T22:11:50.385Z,100118.50
2023-03-06T22:14:20.905Z,100118.66
2023-03-06T22:16:53.411Z,100122.53
2023-03-06T22:19:23.935Z,100114.34
2023-03-06T22:21:56.069Z,100114.59
2023-03-06T22:24:29.446Z,100125.34
2023-03-06T22:27:00.028Z,100122.56
2023-03-06T22:29:30.623Z,100122.97
2023-03-06T22:32:01.114Z,100125.47
2023-03-06T22:34:31.614Z,100128.63
2023-03-06T22:37:03.852Z,100137.91
2023-03-06T22:39:34.385Z,100142.06
2023-03-06T22:42:04.887Z,100150.00
2023-03-06T22:44:35.369Z,100150.09
2023-03-06T22:47:05.908Z,100165.44
2023-03-06T22:49:36.431Z,100176.22
2023-03-06T22:52:09.031Z,100129.13
2023-03-06T22:54:39.683Z,100183.84
2023-03-06T22:57:10.222Z,100188.84
2023-03-06T22:59:40.762Z,100188.03
2023-03-06T23:02:11.282Z,100178.59
2023-03-06T23:04:41.910Z,100186.44
2023-03-06T23:07:14.080Z,100188.84
2023-03-06T23:09:44.576Z,100175.34
2023-03-06T23:12:15.135Z,100177.72
2023-03-06T23:14:50.314Z,100166.56
2023-03-06T23:17:20.986Z,100169.09
2023-03-06T23:19:52.649Z,100161.19
2023-03-06T23:22:25.462Z,100157.94
2023-03-06T23:24:55.908Z,100057.53
2023-03-06T23:27:26.624Z,100131.06
2023-03-06T23:29:59.692Z,100132.69
2023-03-06T23:32:30.235Z,100143.78
2023-03-06T23:35:00.790Z,100150.78
2023-03-06T23:37:32.979Z,100152.41
2023-03-06T23:40:03.470Z,100163.25
2023-03-06T23:42:35.246Z,100163.16
2023-03-06T23:45:06.109Z,100166.75
2023-03-06T23:47:36.973Z,100171.88
2023-03-06T23:50:08.216Z,100162.56
2023-03-06T23:52:40.434Z,100157.94
2023-03-06T23:55:11.981Z,100178.84
2023-03-06T23:57:42.482Z,100170.13
